createdAt,value
2022-08-25T00:01:32.242Z,63.95
2022-08-25T00:04:00.612Z,64.28
2022-08-25T00:06:35.269Z,64.85
2022-08-25T00:09:02.899Z,64.51
2022-08-25T00:11:33.225Z,63.81
2022-08-25T00:14:03.752Z,63.21
2022-08-25T00:16:34.930Z,63.38
2022-08-25T00:19:05.876Z,62.92
2022-08-25T00:21:34.762Z,63.46
2022-08-25T00:24:05.650Z,63.04
2022-08-25T00:26:34.907Z,62.79
2022-08-25T00:29:02.661Z,63.09
2022-08-25T00:31:37.765Z,63.69
2022-08-25T00:34:09.154Z,63.24
2022-08-25T00:36:40.086Z,63.26
2022-08-25T00:39:08.288Z,63.17
2022-08-25T00:41:43.748Z,63.32
2022-08-25T00:44:17.830Z,63.48
2022-08-25T00:46:47.905Z,62.93
2022-08-25T00:49:24.785Z,63.46
2022-08-25T00:51:54.218Z,63.25
2022-08-25T00:54:23.596Z,63.27
2022-08-25T00:56:52.702Z,63.04
2022-08-25T00:59:20.864Z,63.29
2022-08-25T01:01:50.968Z,63.45
2022-08-25T01:04:19.305Z,63.54
2022-08-25T01:06:50.841Z,63.44
2022-08-25T01:09:19.004Z,63.07
2022-08-25T01:11:47.507Z,64.49
2022-08-25T01:14:18.002Z,63.90
2022-08-25T01:16:50.961Z,63.81
2022-08-25T01:19:19.481Z,63.08
2022-08-25T01:21:49.933Z,62.93
2022-08-25T01:24:20.012Z,63.16
2022-08-25T01:26:47.716Z,63.83
2022-08-25T01:29:26.359Z,63.75
2022-08-25T01:31:58.060Z,64.02
2022-08-25T01:34:29.469Z,64.64
2022-08-25T01:37:01.867Z,64.26
2022-08-25T01:39:31.002Z,64.13
2022-08-25T01:42:11.574Z,63.52
2022-08-25T01:44:40.489Z,62.85
2022-08-25T01:47:09.200Z,63.01
2022-08-25T01:49:37.388Z,63.12
2022-08-25T01:52:09.460Z,64.14
2022-08-25T01:54:37.109Z,64.49
2022-08-25T01:57:05.273Z,64.14
2022-08-25T01:59:35.952Z,64.60
2022-08-25T02:02:04.941Z,64.81
2022-08-25T02:04:36.792Z,64.70
2022-08-25T02:07:05.486Z,64.92
2022-08-25T02:09:35.409Z,64.52
2022-08-25T02:12:03.533Z,65.40
2022-08-25T02:14:31.573Z,64.85
2022-08-25T02:17:01.751Z,64.75
2022-08-25T02:19:31.009Z,66.08
2022-08-25T02:21:58.758Z,66.23
2022-08-25T02:24:26.638Z,66.71
2022-08-25T02:26:56.385Z,65.93
2022-08-25T02:29:24.016Z,65.28
2022-08-25T02:31:51.881Z,64.61
2022-08-25T02:34:22.820Z,65.33
2022-08-25T02:36:51.884Z,65.08
2022-08-25T02:39:19.504Z,65.12
2022-08-25T02:41:47.175Z,64.75
2022-08-25T02:44:16.348Z,64.90
2022-08-25T02:46:45.198Z,65.08
2022-08-25T02:49:12.832Z,65.23
2022-08-25T02:51:40.549Z,65.25
2022-08-25T02:54:13.598Z,65.24
2022-08-25T02:56:43.057Z,65.36
2022-08-25T02:59:12.488Z,65.54
2022-08-25T03:01:41.988Z,65.36
2022-08-25T03:04:09.664Z,65.67
2022-08-25T03:06:37.703Z,66.47
2022-08-25T03:09:05.869Z,66.32
2022-08-25T03:11:33.713Z,66.00
2022-08-25T03:14:01.306Z,65.75
2022-08-25T03:16:29.410Z,65.68
2022-08-25T03:18:59.811Z,66.08
2022-08-25T03:21:30.206Z,66.56
2022-08-25T03:23:58.497Z,66.35
2022-08-25T03:26:44.186Z,66.51
2022-08-25T03:29:15.036Z,66.44
2022-08-25T03:31:44.676Z,66.31
2022-08-25T03:34:16.886Z,66.98
2022-08-25T03:36:47.951Z,66.45
2022-08-25T03:39:15.921Z,66.25
2022-08-25T03:41:43.898Z,65.89
2022-08-25T03:44:11.813Z,65.69
2022-08-25T03:46:40.395Z,65.67
2022-08-25T03:49:09.875Z,65.54
2022-08-25T03:51:43.928Z,65.85
2022-08-25T03:54:12.209Z,66.03
2022-08-25T03:56:42.334Z,65.94
2022-08-25T03:59:10.268Z,66.04
2022-08-25T04:01:38.833Z,66.29
2022-08-25T04:04:07.356Z,66.23
2022-08-25T04:06:35.421Z,66.05
2022-08-25T04:09:07.386Z,66.01
2022-08-25T04:11:37.183Z,66.69
2022-08-25T04:14:05.930Z,67.93
2022-08-25T04:16:34.485Z,68.87
2022-08-25T04:19:03.684Z,68.71
2022-08-25T04:21:36.897Z,68.67
2022-08-25T04:24:06.452Z,69.04
2022-08-25T04:26:36.236Z,67.73
2022-08-25T04:29:07.733Z,67.20
2022-08-25T04:31:35.427Z,66.80
2022-08-25T04:34:03.353Z,66.78
2022-08-25T04:36:31.112Z,67.20
2022-08-25T04:39:01.949Z,68.26
2022-08-25T04:41:31.422Z,67.69
2022-08-25T04:44:01.134Z,67.51
2022-08-25T04:46:32.205Z,67.70
2022-08-25T04:49:01.091Z,67.15
2022-08-25T04:51:29.771Z,66.87
2022-08-25T04:54:00.261Z,66.98
2022-08-25T04:56:32.614Z,67.34
2022-08-25T04:59:04.843Z,67.86
2022-08-25T05:01:35.365Z,67.39
2022-08-25T05:04:04.439Z,67.02
2022-08-25T05:06:33.825Z,67.72
2022-08-25T05:09:03.667Z,67.67
2022-08-25T05:11:33.157Z,67.72
2022-08-25T05:14:11.866Z,67.99
2022-08-25T05:16:39.902Z,68.27
2022-08-25T05:19:08.253Z,68.50
2022-08-25T05:21:37.141Z,68.73
2022-08-25T05:24:05.621Z,69.33
2022-08-25T05:26:36.430Z,69.01
2022-08-25T05:29:05.779Z,69.15
2022-08-25T05:31:34.397Z,68.68
2022-08-25T05:34:06.494Z,68.98
2022-08-25T05:36:35.020Z,68.16
2022-08-25T05:39:02.793Z,67.42
2022-08-25T05:41:36.678Z,66.59
2022-08-25T05:44:08.985Z,65.88
2022-08-25T05:46:36.656Z,65.12
2022-08-25T05:49:04.294Z,65.14
2022-08-25T05:51:33.751Z,64.48
2022-08-25T05:54:01.901Z,64.31
2022-08-25T05:56:31.483Z,64.89
2022-08-25T05:58:59.105Z,66.09
2022-08-25T06:01:46.771Z,65.25
2022-08-25T06:04:14.923Z,65.83
2022-08-25T06:06:45.236Z,66.03
2022-08-25T06:09:17.959Z,64.65
2022-08-25T06:11:46.303Z,64.81
2022-08-25T06:14:18.470Z,66.72
2022-08-25T06:16:49.055Z,64.80
2022-08-25T06:19:17.165Z,64.80
2022-08-25T06:21:46.344Z,65.27
2022-08-25T06:24:16.120Z,64.75
2022-08-25T06:26:44.179Z,64.77
2022-08-25T06:29:16.836Z,65.07
2022-08-25T06:31:50.014Z,65.17
2022-08-25T06:34:23.787Z,65.42
2022-08-25T06:36:52.582Z,65.96
2022-08-25T06:39:20.380Z,65.82
2022-08-25T06:42:02.809Z,65.21
2022-08-25T06:44:30.592Z,64.63
2022-08-25T06:47:00.166Z,64.56
2022-08-25T06:49:31.900Z,65.06
2022-08-25T06:52:02.113Z,64.92
2022-08-25T06:54:30.395Z,64.25
2022-08-25T06:56:58.774Z,64.32
2022-08-25T06:59:32.034Z,63.71
2022-08-25T07:02:04.200Z,63.25
2022-08-25T07:04:32.095Z,63.66
2022-08-25T07:07:00.180Z,64.45
2022-08-25T07:09:27.896Z,64.51
2022-08-25T07:11:58.780Z,64.23
2022-08-25T07:14:30.279Z,64.05
2022-08-25T07:17:01.055Z,64.66
2022-08-25T07:19:30.668Z,64.76
2022-08-25T07:21:58.646Z,64.22
2022-08-25T07:24:27.055Z,65.31
2022-08-25T07:26:55.387Z,63.76
2022-08-25T07:29:32.718Z,62.87
2022-08-25T07:32:01.828Z,62.61
2022-08-25T07:34:52.193Z,62.03
2022-08-25T07:37:38.281Z,62.13
2022-08-25T07:40:09.385Z,62.02
2022-08-25T07:42:37.906Z,62.32
2022-08-25T07:45:11.156Z,61.73
2022-08-25T07:47:41.827Z,60.74
2022-08-25T07:50:14.612Z,61.38
2022-08-25T07:52:44.281Z,61.33
2022-08-25T07:55:22.491Z,62.15
2022-08-25T07:57:55.434Z,62.04
2022-08-25T08:00:27.779Z,62.23
2022-08-25T08:02:56.170Z,61.62
2022-08-25T08:05:26.480Z,62.17
2022-08-25T08:07:54.326Z,61.34
2022-08-25T08:11:00.639Z,62.12
2022-08-25T08:13:11.287Z,61.80
2022-08-25T08:15:45.215Z,60.90
2022-08-25T08:18:12.903Z,61.90
2022-08-25T08:20:43.381Z,60.79
2022-08-25T08:23:11.422Z,61.71
2022-08-25T08:25:41.798Z,61.64
2022-08-25T08:28:10.926Z,60.02
2022-08-25T08:30:39.485Z,60.19
2022-08-25T08:33:19.686Z,59.61
2022-08-25T08:35:49.817Z,59.55
2022-08-25T08:38:26.983Z,59.83
2022-08-25T08:41:13.316Z,60.60
2022-08-25T08:43:41.780Z,60.22
2022-08-25T08:46:09.523Z,60.19
2022-08-25T08:48:51.402Z,60.07
2022-08-25T08:51:26.050Z,59.97
2022-08-25T08:54:01.351Z,59.47
2022-08-25T08:56:29.866Z,59.76
2022-08-25T08:59:05.585Z,60.23
2022-08-25T09:01:35.880Z,60.15
2022-08-25T09:04:06.506Z,58.82
2022-08-25T09:06:38.568Z,58.03
2022-08-25T09:09:07.158Z,57.35
2022-08-25T09:11:39.916Z,57.67
2022-08-25T09:14:10.630Z,58.06
2022-08-25T09:17:00.003Z,58.20
2022-08-25T09:19:45.505Z,56.58
2022-08-25T09:22:33.585Z,57.04
2022-08-25T09:25:09.051Z,56.85
2022-08-25T09:27:39.573Z,56.35
2022-08-25T09:30:10.189Z,56.27
2022-08-25T09:32:40.260Z,55.46
2022-08-25T09:35:08.354Z,55.31
2022-08-25T09:37:37.897Z,55.40
2022-08-25T09:40:06.075Z,55.25
2022-08-25T09:42:51.084Z,55.15
2022-08-25T09:45:43.513Z,55.83
2022-08-25T09:48:28.531Z,57.15
2022-08-25T09:51:00.963Z,56.96
2022-08-25T09:53:33.900Z,55.62
2022-08-25T09:56:04.637Z,54.97
2022-08-25T09:58:32.645Z,56.02
2022-08-25T10:01:10.320Z,55.72
2022-08-25T10:03:38.041Z,55.18
2022-08-25T10:06:14.747Z,55.75
2022-08-25T10:08:55.604Z,55.91
2022-08-25T10:11:30.716Z,55.30
2022-08-25T10:14:02.888Z,54.93
2022-08-25T10:16:35.669Z,54.78
2022-08-25T10:19:06.808Z,55.48
2022-08-25T10:21:35.653Z,55.68
2022-08-25T10:24:08.329Z,54.24
2022-08-25T10:26:39.379Z,54.12
2022-08-25T10:29:10.175Z,53.41
2022-08-25T10:31:38.236Z,52.70
2022-08-25T10:34:13.721Z,52.54
2022-08-25T10:36:47.148Z,51.88
2022-08-25T10:39:34.372Z,52.80
2022-08-25T10:42:05.294Z,52.16
2022-08-25T10:44:51.736Z,51.76
2022-08-25T10:47:27.046Z,49.16
2022-08-25T10:50:03.129Z,48.10
2022-08-25T10:52:33.742Z,50.91
2022-08-25T10:55:05.748Z,51.09
2022-08-25T10:57:35.308Z,51.08
2022-08-25T11:00:06.977Z,51.39
2022-08-25T11:02:52.397Z,52.07
2022-08-25T11:05:24.524Z,52.17
2022-08-25T11:07:56.339Z,49.68
2022-08-25T11:10:28.092Z,49.40
2022-08-25T11:13:03.955Z,50.66
2022-08-25T11:15:34.149Z,50.87
2022-08-25T11:18:03.449Z,51.40
2022-08-25T11:20:33.709Z,51.57
2022-08-25T11:23:11.368Z,50.05
2022-08-25T11:25:46.008Z,49.87
2022-08-25T11:28:16.085Z,48.46
2022-08-25T11:30:44.558Z,48.57
2022-08-25T11:33:17.174Z,46.81
2022-08-25T11:35:48.081Z,49.14
2022-08-25T11:38:23.528Z,49.35
2022-08-25T11:40:56.146Z,51.35
2022-08-25T11:43:28.285Z,51.98
2022-08-25T11:46:02.980Z,50.13
2022-08-25T11:48:35.973Z,50.66
2022-08-25T11:51:05.001Z,49.31
2022-08-25T11:53:33.165Z,48.40
2022-08-25T11:56:04.597Z,47.94
2022-08-25T11:58:34.772Z,46.94
2022-08-25T12:01:02.713Z,46.65
2022-08-25T12:03:50.777Z,45.93
2022-08-25T12:06:21.324Z,45.02
2022-08-25T12:08:50.901Z,46.31
2022-08-25T12:11:33.935Z,46.67
2022-08-25T12:14:16.546Z,47.86
2022-08-25T12:16:45.808Z,46.41
2022-08-25T12:19:50.208Z,46.25
2022-08-25T12:22:36.677Z,47.06
2022-08-25T12:25:06.920Z,45.25
2022-08-25T12:27:38.442Z,44.85
2022-08-25T12:30:18.517Z,46.42
2022-08-25T12:32:54.421Z,46.79
2022-08-25T12:35:30.221Z,47.41
2022-08-25T12:38:03.786Z,46.47
2022-08-25T12:40:33.472Z,45.69
2022-08-25T12:43:11.411Z,44.43
2022-08-25T12:45:42.526Z,43.32
2022-08-25T12:48:29.360Z,42.65
2022-08-25T12:51:10.165Z,43.52
2022-08-25T12:53:39.751Z,43.33
2022-08-25T12:56:09.501Z,44.47
2022-08-25T12:59:00.089Z,43.64
2022-08-25T13:01:36.326Z,42.46
2022-08-25T13:04:18.283Z,42.42
2022-08-25T13:07:01.333Z,44.51
2022-08-25T13:09:41.781Z,44.05
2022-08-25T13:12:11.264Z,43.29
2022-08-25T13:14:39.767Z,43.76
2022-08-25T13:17:10.123Z,43.20
2022-08-25T13:19:38.560Z,43.07
2022-08-25T13:22:16.101Z,41.17
2022-08-25T13:24:44.814Z,41.26
2022-08-25T13:27:22.888Z,41.42
2022-08-25T13:29:51.761Z,41.58
2022-08-25T13:32:32.012Z,41.00
2022-08-25T13:35:12.592Z,41.03
2022-08-25T13:37:40.929Z,42.62
2022-08-25T13:40:10.232Z,42.25
2022-08-25T13:42:39.242Z,41.09
2022-08-25T13:45:11.132Z,41.33
2022-08-25T13:47:45.646Z,40.51
2022-08-25T13:50:31.318Z,41.61
2022-08-25T13:53:04.123Z,43.18
2022-08-25T13:55:50.872Z,42.56
2022-08-25T13:58:24.359Z,42.85
2022-08-25T14:01:02.183Z,42.39
2022-08-25T14:03:33.363Z,42.36
2022-08-25T14:06:09.536Z,42.93
2022-08-25T14:08:38.551Z,41.33
2022-08-25T14:11:14.906Z,41.75
2022-08-25T14:13:43.683Z,42.13
2022-08-25T14:16:17.434Z,41.50
2022-08-25T14:18:52.598Z,40.85
2022-08-25T14:21:20.858Z,40.75
2022-08-25T14:23:49.011Z,41.30
2022-08-25T14:26:19.901Z,40.17
2022-08-25T14:28:47.556Z,39.83
2022-08-25T14:31:16.120Z,38.89
2022-08-25T14:33:45.307Z,36.78
2022-08-25T14:36:21.121Z,36.83
2022-08-25T14:38:54.573Z,38.20
2022-08-25T14:41:24.541Z,38.28
2022-08-25T14:43:52.610Z,36.35
2022-08-25T14:46:22.402Z,35.98
2022-08-25T14:48:52.195Z,36.78
2022-08-25T14:51:28.634Z,37.96
2022-08-25T14:54:01.983Z,38.99
2022-08-25T14:56:29.788Z,38.75
2022-08-25T14:59:03.552Z,38.76
2022-08-25T15:01:34.414Z,38.52
2022-08-25T15:04:03.581Z,38.50
2022-08-25T15:06:33.136Z,37.44
2022-08-25T15:09:10.877Z,39.01
2022-08-25T15:11:41.585Z,39.48
2022-08-25T15:14:10.898Z,39.56
2022-08-25T15:16:40.179Z,39.16
2022-08-25T15:19:12.310Z,39.59
2022-08-25T15:21:42.619Z,40.10
2022-08-25T15:24:17.504Z,39.03
2022-08-25T15:29:23.399Z,38.23
2022-08-25T15:31:51.360Z,37.64
2022-08-25T15:34:19.495Z,39.11
2022-08-25T15:36:50.393Z,39.71
2022-08-25T15:39:19.000Z,40.16
2022-08-25T15:41:54.569Z,40.39
2022-08-25T15:44:26.160Z,39.68
2022-08-25T15:46:57.310Z,39.85
2022-08-25T15:49:25.639Z,39.89
2022-08-25T15:52:00.803Z,39.55
2022-08-25T15:54:28.991Z,39.94
2022-08-25T15:56:58.818Z,40.36
2022-08-25T15:59:28.083Z,40.81
2022-08-25T16:01:56.215Z,40.78
2022-08-25T16:04:24.409Z,40.06
2022-08-25T16:06:52.174Z,40.21
2022-08-25T16:09:24.446Z,40.20
2022-08-25T16:11:56.517Z,40.94
2022-08-25T16:14:28.425Z,40.64
2022-08-25T16:16:59.761Z,41.03
2022-08-25T16:19:28.030Z,40.35
2022-08-25T16:21:55.985Z,40.21
2022-08-25T16:24:30.683Z,40.06
2022-08-25T16:27:11.136Z,40.31
2022-08-25T16:29:39.804Z,41.59
2022-08-25T16:32:10.233Z,42.39
2022-08-25T16:34:37.997Z,41.67
2022-08-25T16:37:07.090Z,41.42
2022-08-25T16:39:36.162Z,41.07
2022-08-25T16:42:08.367Z,42.22
2022-08-25T16:44:36.146Z,41.87
2022-08-25T16:47:04.887Z,43.13
2022-08-25T16:49:36.767Z,43.36
2022-08-25T16:52:34.978Z,44.05
2022-08-25T16:55:12.963Z,44.05
2022-08-25T16:57:40.944Z,43.91
2022-08-25T17:00:12.545Z,43.37
2022-08-25T17:02:40.370Z,44.63
2022-08-25T17:05:08.528Z,44.29
2022-08-25T17:07:36.132Z,44.70
2022-08-25T17:10:07.248Z,44.42
2022-08-25T17:12:49.307Z,44.67
2022-08-25T17:15:23.832Z,44.50
2022-08-25T17:17:51.914Z,45.22
2022-08-25T17:20:19.628Z,44.21
2022-08-25T17:22:52.017Z,44.45
2022-08-25T17:25:20.208Z,44.75
2022-08-25T17:27:49.360Z,44.13
2022-08-25T17:30:18.072Z,44.21
2022-08-25T17:32:46.065Z,44.97
2022-08-25T17:35:20.064Z,45.21
2022-08-25T17:37:49.960Z,44.80
2022-08-25T17:40:18.561Z,45.22
2022-08-25T17:42:47.304Z,44.73
2022-08-25T17:45:16.759Z,45.12
2022-08-25T17:47:44.780Z,45.41
2022-08-25T17:50:25.018Z,45.88
2022-08-25T17:52:54.803Z,45.59
2022-08-25T17:55:23.515Z,45.49
2022-08-25T17:57:51.377Z,45.17
2022-08-25T18:00:22.339Z,45.09
2022-08-25T18:02:57.323Z,45.21
2022-08-25T18:05:25.393Z,46.25
2022-08-25T18:07:55.516Z,46.52
2022-08-25T18:10:31.602Z,46.27
2022-08-25T18:13:02.141Z,46.44
2022-08-25T18:15:33.103Z,46.29
2022-08-25T18:18:01.886Z,45.64
2022-08-25T18:20:32.550Z,45.86
2022-08-25T18:23:00.533Z,46.64
2022-08-25T18:25:33.997Z,47.09
2022-08-25T18:28:01.788Z,46.68
2022-08-25T18:30:32.394Z,46.86
2022-08-25T18:33:01.900Z,46.54
2022-08-25T18:35:29.630Z,47.31
2022-08-25T18:38:14.835Z,47.23
2022-08-25T18:40:42.922Z,47.68
2022-08-25T18:43:11.816Z,48.27
2022-08-25T18:45:41.006Z,48.19
2022-08-25T18:48:12.009Z,48.24
2022-08-25T18:50:42.073Z,47.95
2022-08-25T18:53:11.166Z,48.45
2022-08-25T18:55:39.665Z,48.46
2022-08-25T18:58:08.084Z,48.96
2022-08-25T19:00:37.287Z,49.30
2022-08-25T19:03:08.886Z,49.97
2022-08-25T19:05:41.370Z,50.07
2022-08-25T19:08:13.671Z,50.43
2022-08-25T19:10:46.783Z,50.33
2022-08-25T19:13:14.450Z,50.95
2022-08-25T19:15:42.474Z,51.12
2022-08-25T19:18:10.887Z,50.90
2022-08-25T19:20:44.796Z,50.43
2022-08-25T19:23:13.150Z,50.63
2022-08-25T19:25:42.201Z,51.47
2022-08-25T19:28:19.258Z,51.26
2022-08-25T19:30:51.328Z,51.55
2022-08-25T19:33:42.302Z,51.93
2022-08-25T19:36:10.195Z,52.04
2022-08-25T19:38:39.454Z,52.46
2022-08-25T19:41:10.665Z,52.91
2022-08-25T19:43:55.493Z,52.79
2022-08-25T19:46:32.647Z,53.14
2022-08-25T19:49:07.205Z,53.13
2022-08-25T19:51:38.509Z,52.90
2022-08-25T19:54:21.327Z,53.43
2022-08-25T19:56:55.054Z,53.82
2022-08-25T19:59:34.360Z,53.51
2022-08-25T20:02:11.994Z,54.17
2022-08-25T20:04:42.926Z,53.83
2022-08-25T20:07:19.462Z,54.14
2022-08-25T20:09:48.837Z,54.95
2022-08-25T20:12:17.291Z,54.95
2022-08-25T20:14:46.845Z,53.99
2022-08-25T20:17:23.715Z,54.24
2022-08-25T20:19:54.212Z,54.08
2022-08-25T20:22:26.957Z,54.52
2022-08-25T20:24:57.493Z,54.54
2022-08-25T20:27:26.949Z,54.31
2022-08-25T20:29:58.047Z,55.41
2022-08-25T20:32:26.175Z,55.31
2022-08-25T20:34:57.002Z,55.26
2022-08-25T20:37:30.002Z,56.62
2022-08-25T20:39:58.175Z,55.86
2022-08-25T20:42:26.345Z,55.79
2022-08-25T20:44:54.682Z,54.98
2022-08-25T20:47:22.686Z,55.22
2022-08-25T20:49:52.048Z,55.77
2022-08-25T20:52:20.220Z,55.94
2022-08-25T20:54:51.218Z,56.93
2022-08-25T20:57:25.707Z,56.11
2022-08-25T20:59:54.490Z,56.55
2022-08-25T21:02:22.264Z,56.13
2022-08-25T21:04:57.035Z,55.37
2022-08-25T21:07:27.590Z,54.92
2022-08-25T21:10:00.838Z,56.74
2022-08-25T21:12:31.567Z,55.26
2022-08-25T21:15:00.243Z,55.92
2022-08-25T21:17:31.401Z,55.55
2022-08-25T21:20:00.920Z,56.24
2022-08-25T21:22:29.182Z,56.58
2022-08-25T21:25:00.733Z,56.71
2022-08-25T21:27:28.794Z,58.14
2022-08-25T21:29:56.432Z,58.76
2022-08-25T21:32:26.093Z,59.72
2022-08-25T21:34:57.772Z,58.97
2022-08-25T21:37:26.768Z,59.06
2022-08-25T21:39:55.234Z,60.02
2022-08-25T21:42:26.591Z,57.96
2022-08-25T21:44:54.400Z,57.80
2022-08-25T21:47:24.596Z,57.53
2022-08-25T21:49:53.049Z,57.02
2022-08-25T21:52:21.181Z,57.41
2022-08-25T21:54:48.861Z,57.16
2022-08-25T21:57:19.144Z,57.62
2022-08-25T21:59:54.904Z,57.88
2022-08-25T22:02:23.360Z,58.16
2022-08-25T22:04:52.669Z,57.89
2022-08-25T22:07:24.721Z,58.67
2022-08-25T22:09:52.727Z,57.87
2022-08-25T22:12:20.577Z,58.39
2022-08-25T22:14:50.763Z,59.75
2022-08-25T22:17:21.067Z,60.22
2022-08-25T22:19:55.790Z,59.40
2022-08-25T22:22:23.841Z,58.91
2022-08-25T22:24:52.062Z,59.25
2022-08-25T22:27:23.454Z,59.27
2022-08-25T22:29:51.643Z,59.29
2022-08-25T22:32:24.619Z,59.95
2022-08-25T22:34:54.209Z,60.06
2022-08-25T22:37:22.399Z,59.65
2022-08-25T22:39:50.306Z,59.36
2022-08-25T22:42:18.497Z,59.03
2022-08-25T22:44:46.137Z,61.76
2022-08-25T22:47:13.753Z,60.61
2022-08-25T22:49:46.493Z,60.19
2022-08-25T22:52:14.090Z,60.81
2022-08-25T22:54:42.555Z,60.34
2022-08-25T22:57:10.757Z,60.73
2022-08-25T22:59:42.011Z,61.39
2022-08-25T23:02:10.275Z,61.42
2022-08-25T23:04:41.135Z,61.13
2022-08-25T23:07:11.385Z,60.56
2022-08-25T23:09:44.939Z,61.51
2022-08-25T23:12:13.391Z,61.83
2022-08-25T23:14:42.028Z,61.33
2022-08-25T23:17:11.737Z,61.62
2022-08-25T23:19:40.058Z,60.86
2022-08-25T23:22:09.553Z,60.77
2022-08-25T23:24:40.182Z,59.78
2022-08-25T23:27:10.881Z,60.08
2022-08-25T23:29:39.305Z,60.38
2022-08-25T23:32:07.888Z,60.13
2022-08-25T23:34:36.365Z,60.77
2022-08-25T23:37:04.160Z,60.51
2022-08-25T23:39:33.732Z,60.15
2022-08-25T23:42:03.118Z,60.35
2022-08-25T23:44:31.396Z,60.96
2022-08-25T23:47:01.763Z,63.52
2022-08-25T23:49:29.509Z,63.37
2022-08-25T23:51:57.228Z,64.03
2022-08-25T23:54:30.987Z,63.48
2022-08-25T23:56:59.205Z,62.00
2022-08-25T23:59:28.542Z,63.14
